sensor_id;sensor_type;location;lat;lon;timestamp;P1;durP1;ratioP1;P2;durP2;ratioP2
55539;SDS011;41384;51.418;7.286;2023-01-23T00:00:31;17.13;;;10.23;;
55539;SDS011;41384;51.418;7.286;2023-01-23T00:02:57;17.25;;;9.75;;
55539;SDS011;41384;51.418;7.286;2023-01-23T00:05:22;15.02;;;9.07;;
55539;SDS011;41384;51.418;7.286;2023-01-23T00:07:48;20.50;;;11.32;;
55539;SDS011;41384;51.418;7.286;2023-01-23T00:10:13;19.73;;;10.45;;
55539;SDS011;41384;51.418;7.286;2023-01-23T00:12:42;19.52;;;11.27;;
55539;SDS011;41384;51.418;7.286;2023-01-23T00:15:09;23.30;;;10.95;;
55539;SDS011;41384;51.418;7.286;2023-01-23T00:17:35;20.23;;;10.23;;
55539;SDS011;41384;51.418;7.286;2023-01-23T00:20:01;19.40;;;10.07;;
55539;SDS011;41384;51.418;7.286;2023-01-23T00:22:26;16.92;;;9.73;;
55539;SDS011;41384;51.418;7.286;2023-01-23T00:24:52;20.30;;;11.27;;
55539;SDS011;41384;51.418;7.286;2023-01-23T00:27:17;20.42;;;10.05;;
55539;SDS011;41384;51.418;7.286;2023-01-23T00:29:43;21.05;;;10.88;;
55539;SDS011;41384;51.418;7.286;2023-01-23T00:32:09;17.33;;;9.63;;
55539;SDS011;41384;51.418;7.286;2023-01-23T00:34:34;23.38;;;10.50;;
55539;SDS011;41384;51.418;7.286;2023-01-23T00:37:01;19.98;;;10.55;;
55539;SDS011;41384;51.418;7.286;2023-01-23T00:39:26;20.42;;;10.90;;
55539;SDS011;41384;51.418;7.286;2023-01-23T00:41:52;19.20;;;10.20;;
55539;SDS011;41384;51.418;7.286;2023-01-23T00:44:17;17.67;;;10.68;;
55539;SDS011;41384;51.418;7.286;2023-01-23T00:46:42;21.25;;;10.98;;
55539;SDS011;41384;51.418;7.286;2023-01-23T00:49:08;22.13;;;11.30;;
55539;SDS011;41384;51.418;7.286;2023-01-23T00:51:33;23.17;;;11.30;;
55539;SDS011;41384;51.418;7.286;2023-01-23T00:53:59;22.60;;;10.75;;
55539;SDS011;41384;51.418;7.286;2023-01-23T00:56:25;20.27;;;10.50;;
55539;SDS011;41384;51.418;7.286;2023-01-23T00:58:50;22.55;;;11.75;;
55539;SDS011;41384;51.418;7.286;2023-01-23T01:01:16;22.48;;;10.77;;
55539;SDS011;41384;51.418;7.286;2023-01-23T01:03:42;21.75;;;11.55;;
55539;SDS011;41384;51.418;7.286;2023-01-23T01:06:07;21.52;;;11.45;;
55539;SDS011;41384;51.418;7.286;2023-01-23T01:08:33;18.73;;;10.43;;
55539;SDS011;41384;51.418;7.286;2023-01-23T01:10:59;21.92;;;11.45;;
55539;SDS011;41384;51.418;7.286;2023-01-23T01:13:24;19.02;;;11.05;;
55539;SDS011;41384;51.418;7.286;2023-01-23T01:15:50;21.15;;;10.90;;
55539;SDS011;41384;51.418;7.286;2023-01-23T01:18:16;19.23;;;9.82;;
55539;SDS011;41384;51.418;7.286;2023-01-23T01:20:43;20.48;;;10.68;;
55539;SDS011;41384;51.418;7.286;2023-01-23T01:23:09;18.77;;;10.60;;
55539;SDS011;41384;51.418;7.286;2023-01-23T01:25:34;18.17;;;10.52;;
55539;SDS011;41384;51.418;7.286;2023-01-23T01:28:00;21.75;;;10.73;;
55539;SDS011;41384;51.418;7.286;2023-01-23T01:30:25;21.27;;;11.43;;
55539;SDS011;41384;51.418;7.286;2023-01-23T01:32:51;16.90;;;10.15;;
55539;SDS011;41384;51.418;7.286;2023-01-23T01:35:17;20.45;;;10.48;;
55539;SDS011;41384;51.418;7.286;2023-01-23T01:37:43;18.33;;;10.13;;
55539;SDS011;41384;51.418;7.286;2023-01-23T01:40:11;19.88;;;10.50;;
55539;SDS011;41384;51.418;7.286;2023-01-23T01:42:39;21.58;;;10.77;;
55539;SDS011;41384;51.418;7.286;2023-01-23T01:45:53;19.42;;;11.05;;
55539;SDS011;41384;51.418;7.286;2023-01-23T01:48:10;19.00;;;10.23;;
55539;SDS011;41384;51.418;7.286;2023-01-23T01:50:35;19.83;;;10.85;;
55539;SDS011;41384;51.418;7.286;2023-01-23T01:53:01;17.40;;;10.25;;
55539;SDS011;41384;51.418;7.286;2023-01-23T01:55:26;19.42;;;10.45;;
55539;SDS011;41384;51.418;7.286;2023-01-23T01:57:52;22.52;;;10.75;;
55539;SDS011;41384;51.418;7.286;2023-01-23T02:00:18;17.30;;;9.60;;
55539;SDS011;41384;51.418;7.286;2023-01-23T02:05:36;19.92;;;11.02;;
55539;SDS011;41384;51.418;7.286;2023-01-23T02:10:46;17.67;;;10.05;;
55539;SDS011;41384;51.418;7.286;2023-01-23T02:15:58;21.92;;;10.27;;
55539;SDS011;41384;51.418;7.286;2023-01-23T02:18:26;17.85;;;9.85;;
55539;SDS011;41384;51.418;7.286;2023-01-23T02:20:53;19.15;;;9.90;;
55539;SDS011;41384;51.418;7.286;2023-01-23T02:23:24;18.00;;;9.77;;
55539;SDS011;41384;51.418;7.286;2023-01-23T02:26:12;18.27;;;10.40;;
55539;SDS011;41384;51.418;7.286;2023-01-23T02:28:44;16.88;;;10.52;;
55539;SDS011;41384;51.418;7.286;2023-01-23T02:31:13;17.15;;;9.07;;
55539;SDS011;41384;51.418;7.286;2023-01-23T02:36:04;15.65;;;9.20;;
55539;SDS011;41384;51.418;7.286;2023-01-23T02:38:34;18.20;;;9.75;;
55539;SDS011;41384;51.418;7.286;2023-01-23T02:41:08;17.85;;;8.77;;
55539;SDS011;41384;51.418;7.286;2023-01-23T02:43:36;14.70;;;8.40;;
55539;SDS011;41384;51.418;7.286;2023-01-23T02:46:06;16.33;;;8.57;;
55539;SDS011;41384;51.418;7.286;2023-01-23T02:48:34;17.77;;;9.45;;
55539;SDS011;41384;51.418;7.286;2023-01-23T02:51:00;14.77;;;9.02;;
55539;SDS011;41384;51.418;7.286;2023-01-23T02:53:26;17.90;;;9.48;;
55539;SDS011;41384;51.418;7.286;2023-01-23T02:55:51;18.90;;;9.45;;
55539;SDS011;41384;51.418;7.286;2023-01-23T02:58:17;18.58;;;9.73;;
55539;SDS011;41384;51.418;7.286;2023-01-23T03:01:01;18.02;;;9.40;;
55539;SDS011;41384;51.418;7.286;2023-01-23T03:03:27;17.33;;;9.18;;
55539;SDS011;41384;51.418;7.286;2023-01-23T03:05:54;18.70;;;10.65;;
55539;SDS011;41384;51.418;7.286;2023-01-23T03:08:19;19.67;;;10.88;;
55539;SDS011;41384;51.418;7.286;2023-01-23T03:10:45;18.90;;;9.90;;
55539;SDS011;41384;51.418;7.286;2023-01-23T03:13:10;21.20;;;11.25;;
55539;SDS011;41384;51.418;7.286;2023-01-23T03:15:36;20.85;;;10.60;;
55539;SDS011;41384;51.418;7.286;2023-01-23T03:18:03;19.52;;;10.68;;
55539;SDS011;41384;51.418;7.286;2023-01-23T03:20:29;20.45;;;9.93;;
55539;SDS011;41384;51.418;7.286;2023-01-23T03:22:54;19.13;;;10.02;;
55539;SDS011;41384;51.418;7.286;2023-01-23T03:25:20;21.10;;;10.68;;
55539;SDS011;41384;51.418;7.286;2023-01-23T03:27:45;20.33;;;9.70;;
55539;SDS011;41384;51.418;7.286;2023-01-23T03:30:12;21.08;;;10.63;;
55539;SDS011;41384;51.418;7.286;2023-01-23T03:32:39;17.88;;;9.98;;
55539;SDS011;41384;51.418;7.286;2023-01-23T03:35:09;19.92;;;10.25;;
55539;SDS011;41384;51.418;7.286;2023-01-23T03:37:37;16.98;;;10.18;;
55539;SDS011;41384;51.418;7.286;2023-01-23T03:40:03;21.15;;;9.98;;
55539;SDS011;41384;51.418;7.286;2023-01-23T03:42:47;22.05;;;10.95;;
55539;SDS011;41384;51.418;7.286;2023-01-23T03:45:13;20.20;;;10.15;;
55539;SDS011;41384;51.418;7.286;2023-01-23T03:47:38;20.67;;;10.32;;
55539;SDS011;41384;51.418;7.286;2023-01-23T03:50:03;19.92;;;10.70;;
55539;SDS011;41384;51.418;7.286;2023-01-23T03:52:30;19.45;;;10.48;;
55539;SDS011;41384;51.418;7.286;2023-01-23T03:54:55;22.33;;;10.35;;
55539;SDS011;41384;51.418;7.286;2023-01-23T03:57:20;22.23;;;10.95;;
55539;SDS011;41384;51.418;7.286;2023-01-23T03:59:46;21.92;;;11.20;;
55539;SDS011;41384;51.418;7.286;2023-01-23T04:02:11;23.33;;;10.77;;
55539;SDS011;41384;51.418;7.286;2023-01-23T04:04:36;22.45;;;11.00;;
55539;SDS011;41384;51.418;7.286;2023-01-23T04:07:02;21.40;;;10.55;;
55539;SDS011;41384;51.418;7.286;2023-01-23T04:09:28;21.45;;;11.57;;
55539;SDS011;41384;51.418;7.286;2023-01-23T04:11:54;19.85;;;9.98;;
55539;SDS011;41384;51.418;7.286;2023-01-23T04:14:20;22.92;;;11.13;;
55539;SDS011;41384;51.418;7.286;2023-01-23T04:16:46;20.55;;;10.90;;
55539;SDS011;41384;51.418;7.286;2023-01-23T04:19:11;24.35;;;11.45;;
55539;SDS011;41384;51.418;7.286;2023-01-23T04:21:37;20.70;;;10.38;;
55539;SDS011;41384;51.418;7.286;2023-01-23T04:24:02;19.95;;;10.00;;
55539;SDS011;41384;51.418;7.286;2023-01-23T04:26:28;21.60;;;11.20;;
55539;SDS011;41384;51.418;7.286;2023-01-23T04:28:53;23.25;;;11.13;;
55539;SDS011;41384;51.418;7.286;2023-01-23T04:31:18;22.15;;;11.40;;
55539;SDS011;41384;51.418;7.286;2023-01-23T04:33:43;20.45;;;10.65;;
55539;SDS011;41384;51.418;7.286;2023-01-23T04:36:09;19.73;;;10.52;;
55539;SDS011;41384;51.418;7.286;2023-01-23T04:38:34;20.83;;;10.98;;
55539;SDS011;41384;51.418;7.286;2023-01-23T04:41:00;18.45;;;10.63;;
55539;SDS011;41384;51.418;7.286;2023-01-23T04:43:25;19.48;;;11.00;;
55539;SDS011;41384;51.418;7.286;2023-01-23T04:45:51;22.08;;;12.02;;
55539;SDS011;41384;51.418;7.286;2023-01-23T04:48:18;19.85;;;10.23;;
55539;SDS011;41384;51.418;7.286;2023-01-23T04:50:43;19.20;;;10.27;;
55539;SDS011;41384;51.418;7.286;2023-01-23T04:53:08;19.67;;;10.32;;
55539;SDS011;41384;51.418;7.286;2023-01-23T04:55:34;17.67;;;9.52;;
55539;SDS011;41384;51.418;7.286;2023-01-23T04:57:59;19.27;;;9.48;;
55539;SDS011;41384;51.418;7.286;2023-01-23T05:00:25;18.83;;;9.55;;
55539;SDS011;41384;51.418;7.286;2023-01-23T05:02:52;16.70;;;9.98;;
55539;SDS011;41384;51.418;7.286;2023-01-23T05:05:18;22.00;;;10.38;;
55539;SDS011;41384;51.418;7.286;2023-01-23T05:07:46;16.60;;;9.23;;
55539;SDS011;41384;51.418;7.286;2023-01-23T05:10:13;22.67;;;10.40;;
55539;SDS011;41384;51.418;7.286;2023-01-23T05:12:39;20.27;;;10.27;;
55539;SDS011;41384;51.418;7.286;2023-01-23T05:15:05;17.92;;;9.63;;
55539;SDS011;41384;51.418;7.286;2023-01-23T05:17:31;19.73;;;9.23;;
55539;SDS011;41384;51.418;7.286;2023-01-23T05:19:56;18.38;;;9.63;;
55539;SDS011;41384;51.418;7.286;2023-01-23T05:22:22;20.05;;;11.00;;
55539;SDS011;41384;51.418;7.286;2023-01-23T05:24:47;20.63;;;9.63;;
55539;SDS011;41384;51.418;7.286;2023-01-23T05:27:12;20.42;;;9.90;;
55539;SDS011;41384;51.418;7.286;2023-01-23T05:29:38;20.08;;;9.60;;
55539;SDS011;41384;51.418;7.286;2023-01-23T05:32:03;18.00;;;10.77;;
55539;SDS011;41384;51.418;7.286;2023-01-23T05:34:29;19.67;;;9.90;;
55539;SDS011;41384;51.418;7.286;2023-01-23T05:36:54;17.67;;;9.65;;
55539;SDS011;41384;51.418;7.286;2023-01-23T05:39:20;19.60;;;9.77;;
55539;SDS011;41384;51.418;7.286;2023-01-23T05:41:46;26.65;;;10.50;;
55539;SDS011;41384;51.418;7.286;2023-01-23T05:44:11;18.88;;;9.50;;
55539;SDS011;41384;51.418;7.286;2023-01-23T05:46:36;15.32;;;9.05;;
55539;SDS011;41384;51.418;7.286;2023-01-23T05:49:02;19.08;;;10.18;;
55539;SDS011;41384;51.418;7.286;2023-01-23T05:51:27;16.65;;;9.10;;
55539;SDS011;41384;51.418;7.286;2023-01-23T05:53:56;20.25;;;9.82;;
55539;SDS011;41384;51.418;7.286;2023-01-23T05:56:23;18.00;;;9.60;;
55539;SDS011;41384;51.418;7.286;2023-01-23T05:58:48;16.67;;;9.43;;
55539;SDS011;41384;51.418;7.286;2023-01-23T06:01:13;17.95;;;9.13;;
55539;SDS011;41384;51.418;7.286;2023-01-23T06:03:39;17.40;;;9.18;;
55539;SDS011;41384;51.418;7.286;2023-01-23T06:06:04;19.55;;;10.02;;
55539;SDS011;41384;51.418;7.286;2023-01-23T06:08:29;15.50;;;8.88;;
55539;SDS011;41384;51.418;7.286;2023-01-23T06:10:56;19.02;;;10.15;;
55539;SDS011;41384;51.418;7.286;2023-01-23T06:13:22;18.15;;;8.98;;
55539;SDS011;41384;51.418;7.286;2023-01-23T06:15:48;15.98;;;8.35;;
55539;SDS011;41384;51.418;7.286;2023-01-23T06:18:14;16.40;;;8.85;;
55539;SDS011;41384;51.418;7.286;2023-01-23T06:20:39;17.08;;;9.00;;
55539;SDS011;41384;51.418;7.286;2023-01-23T06:23:04;15.80;;;9.13;;
55539;SDS011;41384;51.418;7.286;2023-01-23T06:25:29;19.05;;;9.35;;
55539;SDS011;41384;51.418;7.286;2023-01-23T06:27:55;16.55;;;9.20;;
55539;SDS011;41384;51.418;7.286;2023-01-23T06:30:20;17.92;;;9.02;;
55539;SDS011;41384;51.418;7.286;2023-01-23T06:32:45;15.82;;;8.93;;
55539;SDS011;41384;51.418;7.286;2023-01-23T06:35:11;17.45;;;8.93;;
55539;SDS011;41384;51.418;7.286;2023-01-23T06:37:36;19.30;;;9.25;;
55539;SDS011;41384;51.418;7.286;2023-01-23T06:40:01;18.52;;;9.45;;
55539;SDS011;41384;51.418;7.286;2023-01-23T06:42:26;17.88;;;9.75;;
55539;SDS011;41384;51.418;7.286;2023-01-23T06:44:52;18.00;;;9.43;;
55539;SDS011;41384;51.418;7.286;2023-01-23T06:47:17;19.77;;;9.18;;
55539;SDS011;41384;51.418;7.286;2023-01-23T06:49:43;17.95;;;9.20;;
55539;SDS011;41384;51.418;7.286;2023-01-23T06:52:08;21.15;;;9.63;;
55539;SDS011;41384;51.418;7.286;2023-01-23T06:54:34;19.90;;;10.07;;
55539;SDS011;41384;51.418;7.286;2023-01-23T06:56:59;18.52;;;9.77;;
55539;SDS011;41384;51.418;7.286;2023-01-23T06:59:24;19.20;;;9.63;;
55539;SDS011;41384;51.418;7.286;2023-01-23T07:01:49;23.73;;;10.15;;
55539;SDS011;41384;51.418;7.286;2023-01-23T07:04:15;22.83;;;10.98;;
55539;SDS011;41384;51.418;7.286;2023-01-23T07:06:40;23.88;;;10.43;;
55539;SDS011;41384;51.418;7.286;2023-01-23T07:09:05;20.55;;;10.15;;
55539;SDS011;41384;51.418;7.286;2023-01-23T07:11:31;24.75;;;11.02;;
55539;SDS011;41384;51.418;7.286;2023-01-23T07:13:56;20.60;;;10.43;;
55539;SDS011;41384;51.418;7.286;2023-01-23T07:16:21;21.42;;;10.88;;
55539;SDS011;41384;51.418;7.286;2023-01-23T07:18:47;21.38;;;10.50;;
55539;SDS011;41384;51.418;7.286;2023-01-23T07:21:12;21.17;;;10.27;;
55539;SDS011;41384;51.418;7.286;2023-01-23T07:23:37;24.77;;;10.63;;
55539;SDS011;41384;51.418;7.286;2023-01-23T07:26:03;22.67;;;10.63;;
55539;SDS011;41384;51.418;7.286;2023-01-23T07:28:34;21.27;;;10.70;;
55539;SDS011;41384;51.418;7.286;2023-01-23T07:31:00;23.77;;;11.30;;
55539;SDS011;41384;51.418;7.286;2023-01-23T07:33:26;22.40;;;10.90;;
55539;SDS011;41384;51.418;7.286;2023-01-23T07:35:52;26.92;;;11.60;;
55539;SDS011;41384;51.418;7.286;2023-01-23T07:38:17;22.25;;;10.80;;
55539;SDS011;41384;51.418;7.286;2023-01-23T07:40:43;21.35;;;11.05;;
55539;SDS011;41384;51.418;7.286;2023-01-23T07:43:09;22.83;;;10.88;;
55539;SDS011;41384;51.418;7.286;2023-01-23T07:45:34;23.25;;;11.98;;
55539;SDS011;41384;51.418;7.286;2023-01-23T07:48:00;21.27;;;10.40;;
55539;SDS011;41384;51.418;7.286;2023-01-23T07:50:25;22.30;;;10.70;;
55539;SDS011;41384;51.418;7.286;2023-01-23T07:52:50;21.67;;;10.70;;
55539;SDS011;41384;51.418;7.286;2023-01-23T07:55:15;23.83;;;10.75;;
55539;SDS011;41384;51.418;7.286;2023-01-23T07:57:41;21.10;;;10.02;;
55539;SDS011;41384;51.418;7.286;2023-01-23T08:00:07;21.75;;;10.27;;
55539;SDS011;41384;51.418;7.286;2023-01-23T08:02:33;23.83;;;11.27;;
55539;SDS011;41384;51.418;7.286;2023-01-23T08:04:58;21.25;;;10.30;;
55539;SDS011;41384;51.418;7.286;2023-01-23T08:07:23;23.05;;;11.55;;
55539;SDS011;41384;51.418;7.286;2023-01-23T08:09:49;20.42;;;10.63;;
55539;SDS011;41384;51.418;7.286;2023-01-23T08:12:14;21.38;;;10.40;;
55539;SDS011;41384;51.418;7.286;2023-01-23T08:14:39;19.30;;;9.93;;
55539;SDS011;41384;51.418;7.286;2023-01-23T08:17:05;21.90;;;10.38;;
55539;SDS011;41384;51.418;7.286;2023-01-23T08:19:30;24.40;;;10.25;;
55539;SDS011;41384;51.418;7.286;2023-01-23T08:21:55;21.77;;;10.48;;
55539;SDS011;41384;51.418;7.286;2023-01-23T08:24:21;25.95;;;10.38;;
55539;SDS011;41384;51.418;7.286;2023-01-23T08:26:46;21.23;;;10.05;;
55539;SDS011;41384;51.418;7.286;2023-01-23T08:29:11;22.23;;;11.25;;
55539;SDS011;41384;51.418;7.286;2023-01-23T08:31:37;24.00;;;10.90;;
55539;SDS011;41384;51.418;7.286;2023-01-23T08:34:03;23.23;;;9.65;;
55539;SDS011;41384;51.418;7.286;2023-01-23T08:36:28;20.20;;;9.85;;
55539;SDS011;41384;51.418;7.286;2023-01-23T08:38:54;22.73;;;9.68;;
55539;SDS011;41384;51.418;7.286;2023-01-23T08:41:19;18.83;;;9.15;;
55539;SDS011;41384;51.418;7.286;2023-01-23T08:43:45;20.55;;;10.25;;
55539;SDS011;41384;51.418;7.286;2023-01-23T08:46:10;20.00;;;10.23;;
55539;SDS011;41384;51.418;7.286;2023-01-23T08:48:35;22.58;;;10.32;;
55539;SDS011;41384;51.418;7.286;2023-01-23T08:51:02;20.48;;;10.18;;
55539;SDS011;41384;51.418;7.286;2023-01-23T08:53:29;21.20;;;9.88;;
55539;SDS011;41384;51.418;7.286;2023-01-23T08:56:02;18.42;;;8.52;;
55539;SDS011;41384;51.418;7.286;2023-01-23T08:58:29;21.05;;;9.45;;
55539;SDS011;41384;51.418;7.286;2023-01-23T09:00:55;20.40;;;10.07;;
55539;SDS011;41384;51.418;7.286;2023-01-23T09:03:21;20.95;;;10.57;;
55539;SDS011;41384;51.418;7.286;2023-01-23T09:05:46;20.83;;;10.02;;
55539;SDS011;41384;51.418;7.286;2023-01-23T09:08:12;18.92;;;8.88;;
55539;SDS011;41384;51.418;7.286;2023-01-23T09:10:37;18.83;;;9.55;;
55539;SDS011;41384;51.418;7.286;2023-01-23T09:13:02;20.60;;;9.77;;
55539;SDS011;41384;51.418;7.286;2023-01-23T09:15:28;19.30;;;9.23;;
55539;SDS011;41384;51.418;7.286;2023-01-23T09:17:53;20.50;;;9.88;;
55539;SDS011;41384;51.418;7.286;2023-01-23T09:20:19;21.25;;;9.60;;
55539;SDS011;41384;51.418;7.286;2023-01-23T09:22:44;16.80;;;8.85;;
55539;SDS011;41384;51.418;7.286;2023-01-23T09:25:10;19.15;;;9.27;;
55539;SDS011;41384;51.418;7.286;2023-01-23T09:27:36;20.83;;;8.70;;
55539;SDS011;41384;51.418;7.286;2023-01-23T09:30:01;16.38;;;8.73;;
55539;SDS011;41384;51.418;7.286;2023-01-23T09:32:26;19.92;;;9.68;;
55539;SDS011;41384;51.418;7.286;2023-01-23T09:34:51;17.38;;;8.23;;
55539;SDS011;41384;51.418;7.286;2023-01-23T09:37:18;18.27;;;8.52;;
55539;SDS011;41384;51.418;7.286;2023-01-23T09:39:44;18.38;;;10.07;;
55539;SDS011;41384;51.418;7.286;2023-01-23T09:42:28;17.75;;;8.85;;
55539;SDS011;41384;51.418;7.286;2023-01-23T09:44:59;16.60;;;8.57;;
55539;SDS011;41384;51.418;7.286;2023-01-23T09:47:36;19.10;;;8.30;;
55539;SDS011;41384;51.418;7.286;2023-01-23T09:50:12;17.40;;;8.93;;
55539;SDS011;41384;51.418;7.286;2023-01-23T09:52:45;17.13;;;8.05;;
55539;SDS011;41384;51.418;7.286;2023-01-23T09:55:31;16.60;;;8.85;;
55539;SDS011;41384;51.418;7.286;2023-01-23T09:57:59;18.23;;;8.50;;
55539;SDS011;41384;51.418;7.286;2023-01-23T10:00:28;16.83;;;8.35;;
55539;SDS011;41384;51.418;7.286;2023-01-23T10:02:56;20.08;;;9.18;;
55539;SDS011;41384;51.418;7.286;2023-01-23T10:05:31;17.45;;;8.35;;
55539;SDS011;41384;51.418;7.286;2023-01-23T10:16:55;17.27;;;8.73;;
55539;SDS011;41384;51.418;7.286;2023-01-23T10:19:50;16.10;;;8.48;;
55539;SDS011;41384;51.418;7.286;2023-01-23T10:25:20;14.15;;;7.53;;
55539;SDS011;41384;51.418;7.286;2023-01-23T10:27:53;18.30;;;8.85;;
55539;SDS011;41384;51.418;7.286;2023-01-23T10:30:27;16.25;;;7.95;;
55539;SDS011;41384;51.418;7.286;2023-01-23T10:32:56;13.00;;;6.90;;
55539;SDS011;41384;51.418;7.286;2023-01-23T10:35:49;13.82;;;7.25;;
55539;SDS011;41384;51.418;7.286;2023-01-23T10:38:25;14.13;;;7.60;;
55539;SDS011;41384;51.418;7.286;2023-01-23T10:43:37;12.98;;;7.20;;
55539;SDS011;41384;51.418;7.286;2023-01-23T10:46:12;14.95;;;7.70;;
55539;SDS011;41384;51.418;7.286;2023-01-23T10:51:23;15.05;;;7.53;;
55539;SDS011;41384;51.418;7.286;2023-01-23T10:56:47;14.75;;;7.53;;
55539;SDS011;41384;51.418;7.286;2023-01-23T10:59:29;13.50;;;7.47;;
55539;SDS011;41384;51.418;7.286;2023-01-23T11:04:27;12.48;;;7.05;;
55539;SDS011;41384;51.418;7.286;2023-01-23T11:07:02;13.10;;;7.05;;
55539;SDS011;41384;51.418;7.286;2023-01-23T11:09:50;13.75;;;6.80;;
55539;SDS011;41384;51.418;7.286;2023-01-23T11:12:17;13.80;;;6.85;;
55539;SDS011;41384;51.418;7.286;2023-01-23T11:14:44;14.65;;;7.25;;
55539;SDS011;41384;51.418;7.286;2023-01-23T11:17:21;14.20;;;7.45;;
55539;SDS011;41384;51.418;7.286;2023-01-23T11:19:49;15.75;;;8.38;;
55539;SDS011;41384;51.418;7.286;2023-01-23T11:22:35;13.63;;;7.38;;
55539;SDS011;41384;51.418;7.286;2023-01-23T11:30:43;13.95;;;7.45;;
55539;SDS011;41384;51.418;7.286;2023-01-23T11:36:13;14.07;;;7.80;;
55539;SDS011;41384;51.418;7.286;2023-01-23T11:38:48;13.32;;;7.60;;
55539;SDS011;41384;51.418;7.286;2023-01-23T11:41:17;13.55;;;7.75;;
55539;SDS011;41384;51.418;7.286;2023-01-23T11:43:43;14.00;;;7.63;;
55539;SDS011;41384;51.418;7.286;2023-01-23T11:51:47;13.73;;;7.60;;
55539;SDS011;41384;51.418;7.286;2023-01-23T11:54:35;15.27;;;8.43;;
55539;SDS011;41384;51.418;7.286;2023-01-23T11:57:17;15.40;;;8.47;;
55539;SDS011;41384;51.418;7.286;2023-01-23T12:03:01;13.60;;;7.50;;
55539;SDS011;41384;51.418;7.286;2023-01-23T12:08:31;15.00;;;8.80;;
55539;SDS011;41384;51.418;7.286;2023-01-23T12:13:55;16.15;;;8.73;;
55539;SDS011;41384;51.418;7.286;2023-01-23T12:19:40;14.38;;;7.78;;
55539;SDS011;41384;51.418;7.286;2023-01-23T12:22:13;15.63;;;8.70;;
55539;SDS011;41384;51.418;7.286;2023-01-23T12:24:59;14.73;;;7.72;;
55539;SDS011;41384;51.418;7.286;2023-01-23T12:27:45;16.08;;;9.70;;
55539;SDS011;41384;51.418;7.286;2023-01-23T12:32:56;14.13;;;8.18;;
55539;SDS011;41384;51.418;7.286;2023-01-23T12:38:40;14.77;;;8.52;;
55539;SDS011;41384;51.418;7.286;2023-01-23T12:41:38;16.13;;;8.80;;
55539;SDS011;41384;51.418;7.286;2023-01-23T12:44:13;17.05;;;9.23;;
55539;SDS011;41384;51.418;7.286;2023-01-23T12:46:55;15.23;;;9.18;;
55539;SDS011;41384;51.418;7.286;2023-01-23T12:49:42;16.42;;;9.05;;
55539;SDS011;41384;51.418;7.286;2023-01-23T12:52:40;15.77;;;8.57;;
55539;SDS011;41384;51.418;7.286;2023-01-23T12:57:46;14.95;;;8.27;;
55539;SDS011;41384;51.418;7.286;2023-01-23T13:00:34;17.52;;;9.98;;
55539;SDS011;41384;51.418;7.286;2023-01-23T13:17:25;17.13;;;8.55;;
55539;SDS011;41384;51.418;7.286;2023-01-23T13:19:58;18.45;;;9.35;;
55539;SDS011;41384;51.418;7.286;2023-01-23T13:23:17;14.75;;;8.43;;
55539;SDS011;41384;51.418;7.286;2023-01-23T13:31:25;15.27;;;8.80;;
55539;SDS011;41384;51.418;7.286;2023-01-23T13:36:44;17.23;;;9.98;;
55539;SDS011;41384;51.418;7.286;2023-01-23T13:41:44;15.40;;;8.20;;
55539;SDS011;41384;51.418;7.286;2023-01-23T13:52:38;16.13;;;9.98;;
55539;SDS011;41384;51.418;7.286;2023-01-23T13:55:31;16.10;;;9.10;;
55539;SDS011;41384;51.418;7.286;2023-01-23T13:58:18;13.68;;;7.63;;
55539;SDS011;41384;51.418;7.286;2023-01-23T14:01:28;15.15;;;7.97;;
55539;SDS011;41384;51.418;7.286;2023-01-23T14:04:00;17.13;;;8.70;;
55539;SDS011;41384;51.418;7.286;2023-01-23T14:06:49;15.35;;;8.65;;
55539;SDS011;41384;51.418;7.286;2023-01-23T14:09:19;18.70;;;9.23;;
55539;SDS011;41384;51.418;7.286;2023-01-23T14:11:44;15.32;;;8.88;;
55539;SDS011;41384;51.418;7.286;2023-01-23T14:14:09;18.00;;;9.13;;
55539;SDS011;41384;51.418;7.286;2023-01-23T14:16:54;16.08;;;7.88;;
55539;SDS011;41384;51.418;7.286;2023-01-23T14:19:21;14.57;;;8.27;;
55539;SDS011;41384;51.418;7.286;2023-01-23T14:21:48;15.75;;;8.40;;
55539;SDS011;41384;51.418;7.286;2023-01-23T14:24:28;17.92;;;9.20;;
55539;SDS011;41384;51.418;7.286;2023-01-23T14:27:07;13.10;;;7.30;;
55539;SDS011;41384;51.418;7.286;2023-01-23T14:29:34;13.77;;;7.88;;
55539;SDS011;41384;51.418;7.286;2023-01-23T14:32:00;15.55;;;8.20;;
55539;SDS011;41384;51.418;7.286;2023-01-23T14:34:26;13.30;;;8.02;;
55539;SDS011;41384;51.418;7.286;2023-01-23T14:39:31;16.00;;;7.90;;
55539;SDS011;41384;51.418;7.286;2023-01-23T14:41:59;14.13;;;7.95;;
55539;SDS011;41384;51.418;7.286;2023-01-23T14:46:58;16.45;;;8.25;;
55539;SDS011;41384;51.418;7.286;2023-01-23T14:49:28;14.02;;;7.90;;
55539;SDS011;41384;51.418;7.286;2023-01-23T14:51:58;15.60;;;7.70;;
55539;SDS011;41384;51.418;7.286;2023-01-23T14:54:25;14.25;;;8.20;;
55539;SDS011;41384;51.418;7.286;2023-01-23T14:56:52;13.45;;;7.20;;
55539;SDS011;41384;51.418;7.286;2023-01-23T15:02:23;14.23;;;7.63;;
55539;SDS011;41384;51.418;7.286;2023-01-23T15:05:07;17.20;;;9.00;;
55539;SDS011;41384;51.418;7.286;2023-01-23T15:07:33;15.13;;;8.23;;
55539;SDS011;41384;51.418;7.286;2023-01-23T15:09:59;14.88;;;8.23;;
55539;SDS011;41384;51.418;7.286;2023-01-23T15:12:25;13.23;;;7.55;;
55539;SDS011;41384;51.418;7.286;2023-01-23T15:14:51;16.63;;;7.93;;
55539;SDS011;41384;51.418;7.286;2023-01-23T15:17:19;18.90;;;8.20;;
55539;SDS011;41384;51.418;7.286;2023-01-23T15:19:48;15.00;;;8.35;;
55539;SDS011;41384;51.418;7.286;2023-01-23T15:24:45;11.65;;;7.05;;
55539;SDS011;41384;51.418;7.286;2023-01-23T15:27:22;11.15;;;6.68;;
55539;SDS011;41384;51.418;7.286;2023-01-23T15:29:49;14.00;;;7.90;;
55539;SDS011;41384;51.418;7.286;2023-01-23T15:32:16;13.38;;;7.25;;
55539;SDS011;41384;51.418;7.286;2023-01-23T15:34:50;14.02;;;7.32;;
55539;SDS011;41384;51.418;7.286;2023-01-23T15:37:20;15.77;;;7.90;;
55539;SDS011;41384;51.418;7.286;2023-01-23T15:39:54;12.85;;;7.55;;
55539;SDS011;41384;51.418;7.286;2023-01-23T15:42:24;12.77;;;6.80;;
55539;SDS011;41384;51.418;7.286;2023-01-23T15:44:54;14.70;;;6.77;;
55539;SDS011;41384;51.418;7.286;2023-01-23T15:47:22;8.85;;;5.32;;
55539;SDS011;41384;51.418;7.286;2023-01-23T15:49:47;12.63;;;6.45;;
55539;SDS011;41384;51.418;7.286;2023-01-23T15:52:17;11.07;;;6.95;;
55539;SDS011;41384;51.418;7.286;2023-01-23T15:54:49;11.57;;;6.75;;
55539;SDS011;41384;51.418;7.286;2023-01-23T15:57:16;11.52;;;6.38;;
55539;SDS011;41384;51.418;7.286;2023-01-23T15:59:42;12.30;;;5.93;;
55539;SDS011;41384;51.418;7.286;2023-01-23T16:02:11;13.30;;;6.45;;
55539;SDS011;41384;51.418;7.286;2023-01-23T16:07:06;12.20;;;6.87;;
55539;SDS011;41384;51.418;7.286;2023-01-23T16:09:32;12.93;;;6.95;;
55539;SDS011;41384;51.418;7.286;2023-01-23T16:12:00;11.93;;;6.65;;
55539;SDS011;41384;51.418;7.286;2023-01-23T16:14:26;10.68;;;7.25;;
55539;SDS011;41384;51.418;7.286;2023-01-23T16:16:52;14.82;;;7.95;;
55539;SDS011;41384;51.418;7.286;2023-01-23T16:19:18;11.85;;;6.65;;
55539;SDS011;41384;51.418;7.286;2023-01-23T16:21:43;13.93;;;8.07;;
55539;SDS011;41384;51.418;7.286;2023-01-23T16:24:16;13.63;;;7.75;;
55539;SDS011;41384;51.418;7.286;2023-01-23T16:26:46;12.77;;;7.95;;
55539;SDS011;41384;51.418;7.286;2023-01-23T16:29:22;14.88;;;8.00;;
55539;SDS011;41384;51.418;7.286;2023-01-23T16:31:49;14.27;;;8.05;;